Oyster Bay, Alabama
Current Conditions -  °F | °C
As of 12:55 PM on Friday 31 Oct 2014 (Local Time) from KJKA Reporting Station
Clear Clear  
Wind Chill: 71°   Ceiling: Unl
Heat Index: 71°   Visibility: 10mi
Dew Point: 47°   Wind: 8mph
Humidity: 41%   Direction: 270°W
Pressure: 29.97"   Gusts: NA
Location:  30.3794°N, 87.7151°W
Report Text: KJKA 311755Z AUTO 27007KT 220V280 10SM CLR 22/08 A2997 RMK AO2 T02190082 10219 20055
Loading
Personal Weather Stations






























Interactive Weather Map
Tropical Storm Tracking
New forecast layout! Learn more

10-Day Weather Forecast

Advertisements
Track Severe Weather on mobile